Jin Tao — VRJM9 — position and weather

sailwx.info

Track history (hours):
 
Tides and Currents Weather Stations Pressure Air Temp Water Temp Dewpoint Dewpoint Depression Visibility Wind Speed Wind Dir Waves Ship Positions

Jin Tao

Last reported at 2017-Oct-09 02:17 UTC. Time now 2017-Oct-19 09:08 UTC.
Position N 41°34' W 071°19'.
Warning: this ship's position is 10 days out of date.

Length 190 m; draft 10.9 m.

Type: Cargo ship. MMSI: 477766200.

Date/timePositionNaut miles runAvg speedWind from/ knotsBaromVisibWave heightAir tempDewpointWater temp
2017-Oct-09 02:17N 41°34' W 071°19'411.4
2017-Oct-09 01:55N 41°38' W 071°18'410.8
2017-Oct-09 01:30N 41°42' W 071°19'5 9.2
2017-Oct-09 01:00N 41°46' W 071°22'3 0.1
2017-Oct-07 13:07N 41°48' W 071°24'  
2017-Oct-04 07:48N 41°48' W 071°24'0 0.0
2017-Oct-04 07:18N 41°48' W 071°24'0 0.0
2017-Oct-04 05:33N 41°48' W 071°24'0 0.1
2017-Oct-04 05:30N 41°48' W 071°24'0 0.0
2017-Oct-04 04:48N 41°48' W 071°24'0 0.0
2017-Oct-04 04:24N 41°48' W 071°24'0 0.0
2017-Oct-03 21:43N 41°48' W 071°24'0 0.0
2017-Oct-03 21:28N 41°48' W 071°24'0 0.5
2017-Oct-03 20:58N 41°48' W 071°24'2 5.1
2017-Oct-03 20:30N 41°46' W 071°22'510.6
2017-Oct-03 20:00N 41°42' W 071°19'  
2017-Oct-01 10:59N 38°45' W 074°41'1012.0
2017-Oct-01 10:08N 38°46' W 074°54'211.8
2017-Oct-01 09:59N 38°46' W 074°57'6 9.4
2017-Oct-01 09:18N 38°49' W 075°04'3 8.8
2017-Oct-01 08:55N 38°52' W 075°05'512.6
2017-Oct-01 08:30N 38°57' W 075°07'612.9
2017-Oct-01 08:01N 39°03' W 075°10'612.8
2017-Oct-01 07:31N 39°08' W 075°14'713.3
2017-Oct-01 07:01N 39°14' W 075°19'714.1
2017-Oct-01 06:30N 39°20' W 075°25'815.4
2017-Oct-01 06:01N 39°25' W 075°31'714.4
2017-Oct-01 05:30N 39°32' W 075°33'713.6
2017-Oct-01 05:00N 39°39' W 075°33'713.7
2017-Oct-01 04:30N 39°45' W 075°29'611.6
2017-Oct-01 04:00N 39°49' W 075°23'612.0
2017-Oct-01 03:31N 39°51' W 075°16'4 8.8
2017-Oct-01 03:00N 39°53' W 075°11'35 1.4
2017-Sep-30 02:00N 39°20' W 075°25'612.4
2017-Sep-30 01:30N 39°15' W 075°19'612.5
2017-Sep-30 01:00N 39°10' W 075°15'612.6
2017-Sep-30 00:30N 39°04' W 075°11'612.9
2017-Sep-30 00:00N 38°58' W 075°08'  
Track history (hours):
 
Tides and Currents Weather Stations Pressure Air Temp Water Temp Dewpoint Dewpoint Depression Visibility Wind Speed Wind Dir Waves Ship Positions

Jin Tao

Last reported at 2017-Oct-09 02:17 UTC. Time now 2017-Oct-19 09:08 UTC.
Position N 41°34' W 071°19'.
Warning: this ship's position is 10 days out of date.

Length 190 m; draft 10.9 m.

Type: Cargo ship. MMSI: 477766200.

Date/timePositionNaut miles runAvg speedWind from/ knotsBaromVisibWave heightAir tempDewpointWater temp
2017-Oct-09 02:17N 41°34' W 071°19'411.4
2017-Oct-09 01:55N 41°38' W 071°18'410.8
2017-Oct-09 01:30N 41°42' W 071°19'5 9.2
2017-Oct-09 01:00N 41°46' W 071°22'3 0.1
2017-Oct-07 13:07N 41°48' W 071°24'  
2017-Oct-04 07:48N 41°48' W 071°24'0 0.0
2017-Oct-04 07:18N 41°48' W 071°24'0 0.0
2017-Oct-04 05:33N 41°48' W 071°24'0 0.1
2017-Oct-04 05:30N 41°48' W 071°24'0 0.0
2017-Oct-04 04:48N 41°48' W 071°24'0 0.0
2017-Oct-04 04:24N 41°48' W 071°24'0 0.0
2017-Oct-03 21:43N 41°48' W 071°24'0 0.0
2017-Oct-03 21:28N 41°48' W 071°24'0 0.5
2017-Oct-03 20:58N 41°48' W 071°24'2 5.1
2017-Oct-03 20:30N 41°46' W 071°22'510.6
2017-Oct-03 20:00N 41°42' W 071°19'  
2017-Oct-01 10:59N 38°45' W 074°41'1012.0
2017-Oct-01 10:08N 38°46' W 074°54'211.8
2017-Oct-01 09:59N 38°46' W 074°57'6 9.4
2017-Oct-01 09:18N 38°49' W 075°04'3 8.8
2017-Oct-01 08:55N 38°52' W 075°05'512.6
2017-Oct-01 08:30N 38°57' W 075°07'612.9
2017-Oct-01 08:01N 39°03' W 075°10'612.8
2017-Oct-01 07:31N 39°08' W 075°14'713.3
2017-Oct-01 07:01N 39°14' W 075°19'714.1
2017-Oct-01 06:30N 39°20' W 075°25'815.4
2017-Oct-01 06:01N 39°25' W 075°31'714.4
2017-Oct-01 05:30N 39°32' W 075°33'713.6
2017-Oct-01 05:00N 39°39' W 075°33'713.7
2017-Oct-01 04:30N 39°45' W 075°29'611.6
2017-Oct-01 04:00N 39°49' W 075°23'612.0
2017-Oct-01 03:31N 39°51' W 075°16'4 8.8
2017-Oct-01 03:00N 39°53' W 075°11'35 1.4
2017-Sep-30 02:00N 39°20' W 075°25'612.4
2017-Sep-30 01:30N 39°15' W 075°19'612.5
2017-Sep-30 01:00N 39°10' W 075°15'612.6
2017-Sep-30 00:30N 39°04' W 075°11'612.9
2017-Sep-30 00:00N 38°58' W 075°08'  

Dump ship's entire track history